sensor_id;sensor_type;location;lat;lon;timestamp;P1;durP1;ratioP1;P2;durP2;ratioP2
41925;SDS011;27615;51.826;5.692;2022-08-16T00:01:52;6.68;;;4.78;;
41925;SDS011;27615;51.826;5.692;2022-08-16T00:04:17;6.72;;;4.45;;
41925;SDS011;27615;51.826;5.692;2022-08-16T00:06:43;6.05;;;4.82;;
41925;SDS011;27615;51.826;5.692;2022-08-16T00:09:08;5.18;;;4.68;;
41925;SDS011;27615;51.826;5.692;2022-08-16T00:11:35;7.38;;;4.13;;
41925;SDS011;27615;51.826;5.692;2022-08-16T00:14:02;5.32;;;4.60;;
41925;SDS011;27615;51.826;5.692;2022-08-16T00:16:32;5.65;;;5.15;;
41925;SDS011;27615;51.826;5.692;2022-08-16T00:18:58;4.60;;;4.13;;
41925;SDS011;27615;51.826;5.692;2022-08-16T00:21:24;5.15;;;4.65;;
41925;SDS011;27615;51.826;5.692;2022-08-16T00:23:50;5.28;;;4.78;;
41925;SDS011;27615;51.826;5.692;2022-08-16T00:26:16;6.35;;;5.03;;
41925;SDS011;27615;51.826;5.692;2022-08-16T00:28:41;4.93;;;4.53;;
41925;SDS011;27615;51.826;5.692;2022-08-16T00:31:07;5.20;;;4.70;;
41925;SDS011;27615;51.826;5.692;2022-08-16T00:33:32;5.60;;;5.10;;
41925;SDS011;27615;51.826;5.692;2022-08-16T00:35:58;6.07;;;5.47;;
41925;SDS011;27615;51.826;5.692;2022-08-16T00:38:23;5.85;;;5.22;;
41925;SDS011;27615;51.826;5.692;2022-08-16T00:40:50;5.60;;;4.93;;
41925;SDS011;27615;51.826;5.692;2022-08-16T00:43:28;6.03;;;5.32;;
41925;SDS011;27615;51.826;5.692;2022-08-16T00:46:04;5.25;;;4.75;;
41925;SDS011;27615;51.826;5.692;2022-08-16T00:48:43;5.47;;;4.95;;
41925;SDS011;27615;51.826;5.692;2022-08-16T00:51:10;5.95;;;5.35;;
41925;SDS011;27615;51.826;5.692;2022-08-16T00:53:38;6.63;;;5.00;;
41925;SDS011;27615;51.826;5.692;2022-08-16T00:56:09;5.25;;;4.78;;
41925;SDS011;27615;51.826;5.692;2022-08-16T00:58:38;6.10;;;4.85;;
41925;SDS011;27615;51.826;5.692;2022-08-16T01:01:07;4.80;;;4.40;;
41925;SDS011;27615;51.826;5.692;2022-08-16T01:03:34;6.43;;;4.63;;
41925;SDS011;27615;51.826;5.692;2022-08-16T01:06:02;5.55;;;5.00;;
41925;SDS011;27615;51.826;5.692;2022-08-16T01:08:29;7.15;;;5.45;;
41925;SDS011;27615;51.826;5.692;2022-08-16T01:10:55;6.28;;;5.68;;
41925;SDS011;27615;51.826;5.692;2022-08-16T01:13:22;6.50;;;5.90;;
41925;SDS011;27615;51.826;5.692;2022-08-16T01:16:03;9.30;;;8.40;;
41925;SDS011;27615;51.826;5.692;2022-08-16T01:18:33;11.45;;;10.32;;
41925;SDS011;27615;51.826;5.692;2022-08-16T01:24:01;13.02;;;11.63;;
41925;SDS011;27615;51.826;5.692;2022-08-16T01:26:48;10.38;;;9.35;;
41925;SDS011;27615;51.826;5.692;2022-08-16T01:29:17;7.82;;;7.10;;
41925;SDS011;27615;51.826;5.692;2022-08-16T01:31:48;8.05;;;7.32;;
41925;SDS011;27615;51.826;5.692;2022-08-16T01:34:14;13.65;;;11.63;;
41925;SDS011;27615;51.826;5.692;2022-08-16T01:36:41;16.98;;;15.20;;
41925;SDS011;27615;51.826;5.692;2022-08-16T01:39:14;15.65;;;13.90;;
41925;SDS011;27615;51.826;5.692;2022-08-16T01:41:41;15.07;;;13.48;;
41925;SDS011;27615;51.826;5.692;2022-08-16T01:44:07;14.20;;;12.80;;
41925;SDS011;27615;51.826;5.692;2022-08-16T01:49:07;16.27;;;14.38;;
41925;SDS011;27615;51.826;5.692;2022-08-16T01:51:37;15.30;;;13.68;;
41925;SDS011;27615;51.826;5.692;2022-08-16T01:54:04;16.63;;;14.88;;
41925;SDS011;27615;51.826;5.692;2022-08-16T01:56:30;14.75;;;13.00;;
41925;SDS011;27615;51.826;5.692;2022-08-16T01:58:57;14.02;;;12.55;;
41925;SDS011;27615;51.826;5.692;2022-08-16T02:01:24;15.05;;;13.55;;
41925;SDS011;27615;51.826;5.692;2022-08-16T02:03:50;11.95;;;10.70;;
41925;SDS011;27615;51.826;5.692;2022-08-16T02:06:16;10.85;;;9.85;;
41925;SDS011;27615;51.826;5.692;2022-08-16T02:08:42;10.07;;;9.05;;
41925;SDS011;27615;51.826;5.692;2022-08-16T02:11:07;10.65;;;9.68;;
41925;SDS011;27615;51.826;5.692;2022-08-16T02:13:34;10.43;;;9.43;;
41925;SDS011;27615;51.826;5.692;2022-08-16T02:16:01;14.10;;;12.70;;
41925;SDS011;27615;51.826;5.692;2022-08-16T02:18:27;19.15;;;15.70;;
41925;SDS011;27615;51.826;5.692;2022-08-16T02:20:53;14.85;;;13.35;;
41925;SDS011;27615;51.826;5.692;2022-08-16T02:23:18;13.23;;;11.75;;
41925;SDS011;27615;51.826;5.692;2022-08-16T02:25:44;12.75;;;11.45;;
41925;SDS011;27615;51.826;5.692;2022-08-16T02:28:11;11.48;;;10.48;;
41925;SDS011;27615;51.826;5.692;2022-08-16T02:30:37;10.98;;;9.98;;
41925;SDS011;27615;51.826;5.692;2022-08-16T02:33:03;11.13;;;10.02;;
41925;SDS011;27615;51.826;5.692;2022-08-16T02:35:30;14.07;;;12.30;;
41925;SDS011;27615;51.826;5.692;2022-08-16T02:37:56;15.20;;;13.60;;
41925;SDS011;27615;51.826;5.692;2022-08-16T02:40:22;15.30;;;13.73;;
41925;SDS011;27615;51.826;5.692;2022-08-16T02:42:48;12.48;;;11.27;;
41925;SDS011;27615;51.826;5.692;2022-08-16T02:45:14;12.70;;;10.82;;
41925;SDS011;27615;51.826;5.692;2022-08-16T02:47:41;13.35;;;12.02;;
41925;SDS011;27615;51.826;5.692;2022-08-16T02:50:07;10.90;;;9.82;;
41925;SDS011;27615;51.826;5.692;2022-08-16T02:52:33;13.65;;;12.27;;
41925;SDS011;27615;51.826;5.692;2022-08-16T02:54:58;13.63;;;12.23;;
41925;SDS011;27615;51.826;5.692;2022-08-16T02:57:24;14.02;;;12.63;;
41925;SDS011;27615;51.826;5.692;2022-08-16T02:59:50;14.95;;;13.20;;
41925;SDS011;27615;51.826;5.692;2022-08-16T03:02:15;12.35;;;11.23;;
41925;SDS011;27615;51.826;5.692;2022-08-16T03:04:42;11.95;;;10.85;;
41925;SDS011;27615;51.826;5.692;2022-08-16T03:07:08;11.80;;;10.60;;
41925;SDS011;27615;51.826;5.692;2022-08-16T03:09:34;13.23;;;11.88;;
41925;SDS011;27615;51.826;5.692;2022-08-16T03:12:00;16.40;;;14.75;;
41925;SDS011;27615;51.826;5.692;2022-08-16T03:14:28;14.82;;;13.32;;
41925;SDS011;27615;51.826;5.692;2022-08-16T03:16:54;12.45;;;11.23;;
41925;SDS011;27615;51.826;5.692;2022-08-16T03:19:20;11.60;;;10.40;;
41925;SDS011;27615;51.826;5.692;2022-08-16T03:21:46;9.18;;;8.27;;
41925;SDS011;27615;51.826;5.692;2022-08-16T03:24:11;12.32;;;11.13;;
41925;SDS011;27615;51.826;5.692;2022-08-16T03:26:37;14.25;;;12.15;;
41925;SDS011;27615;51.826;5.692;2022-08-16T03:29:03;13.50;;;12.15;;
41925;SDS011;27615;51.826;5.692;2022-08-16T03:31:29;17.58;;;15.88;;
41925;SDS011;27615;51.826;5.692;2022-08-16T03:33:54;20.50;;;18.42;;
41925;SDS011;27615;51.826;5.692;2022-08-16T03:36:20;19.58;;;17.58;;
41925;SDS011;27615;51.826;5.692;2022-08-16T03:38:45;19.92;;;17.83;;
41925;SDS011;27615;51.826;5.692;2022-08-16T03:41:11;20.02;;;17.85;;
41925;SDS011;27615;51.826;5.692;2022-08-16T03:43:37;20.98;;;18.88;;
41925;SDS011;27615;51.826;5.692;2022-08-16T03:46:03;20.15;;;17.95;;
41925;SDS011;27615;51.826;5.692;2022-08-16T03:48:29;20.40;;;18.30;;
41925;SDS011;27615;51.826;5.692;2022-08-16T03:50:59;20.20;;;18.20;;
41925;SDS011;27615;51.826;5.692;2022-08-16T03:53:26;21.75;;;19.45;;
41925;SDS011;27615;51.826;5.692;2022-08-16T03:55:52;21.95;;;19.58;;
41925;SDS011;27615;51.826;5.692;2022-08-16T03:58:18;21.70;;;19.25;;
41925;SDS011;27615;51.826;5.692;2022-08-16T04:00:43;19.17;;;17.27;;
41925;SDS011;27615;51.826;5.692;2022-08-16T04:03:09;19.95;;;17.85;;
41925;SDS011;27615;51.826;5.692;2022-08-16T04:05:46;24.40;;;19.40;;
41925;SDS011;27615;51.826;5.692;2022-08-16T04:08:15;20.40;;;18.23;;
41925;SDS011;27615;51.826;5.692;2022-08-16T04:10:41;21.00;;;18.80;;
41925;SDS011;27615;51.826;5.692;2022-08-16T04:13:06;21.25;;;19.00;;
41925;SDS011;27615;51.826;5.692;2022-08-16T04:15:32;18.95;;;17.05;;
41925;SDS011;27615;51.826;5.692;2022-08-16T04:17:57;18.02;;;16.23;;
41925;SDS011;27615;51.826;5.692;2022-08-16T04:20:26;19.58;;;17.40;;
41925;SDS011;27615;51.826;5.692;2022-08-16T04:22:52;19.75;;;17.00;;
41925;SDS011;27615;51.826;5.692;2022-08-16T04:25:18;19.42;;;17.52;;
41925;SDS011;27615;51.826;5.692;2022-08-16T04:27:44;19.63;;;17.63;;
41925;SDS011;27615;51.826;5.692;2022-08-16T04:30:11;21.50;;;19.23;;
41925;SDS011;27615;51.826;5.692;2022-08-16T04:32:39;20.45;;;18.35;;
41925;SDS011;27615;51.826;5.692;2022-08-16T04:35:06;20.42;;;18.38;;
41925;SDS011;27615;51.826;5.692;2022-08-16T04:37:33;21.45;;;19.25;;
41925;SDS011;27615;51.826;5.692;2022-08-16T04:39:58;19.65;;;17.63;;
41925;SDS011;27615;51.826;5.692;2022-08-16T04:42:24;26.65;;;19.90;;
41925;SDS011;27615;51.826;5.692;2022-08-16T04:44:49;20.92;;;18.73;;
41925;SDS011;27615;51.826;5.692;2022-08-16T04:47:15;22.05;;;19.95;;
41925;SDS011;27615;51.826;5.692;2022-08-16T04:49:40;22.27;;;19.98;;
41925;SDS011;27615;51.826;5.692;2022-08-16T04:52:06;21.15;;;18.80;;
41925;SDS011;27615;51.826;5.692;2022-08-16T04:54:31;22.80;;;20.50;;
41925;SDS011;27615;51.826;5.692;2022-08-16T04:56:57;22.83;;;20.30;;
41925;SDS011;27615;51.826;5.692;2022-08-16T04:59:22;22.42;;;19.67;;
41925;SDS011;27615;51.826;5.692;2022-08-16T05:01:48;24.63;;;21.08;;
41925;SDS011;27615;51.826;5.692;2022-08-16T05:04:20;21.88;;;19.60;;
41925;SDS011;27615;51.826;5.692;2022-08-16T05:06:46;21.02;;;18.90;;
41925;SDS011;27615;51.826;5.692;2022-08-16T05:09:12;21.75;;;19.55;;
41925;SDS011;27615;51.826;5.692;2022-08-16T05:11:38;21.90;;;19.63;;
41925;SDS011;27615;51.826;5.692;2022-08-16T05:14:04;20.90;;;18.80;;
41925;SDS011;27615;51.826;5.692;2022-08-16T05:16:29;21.70;;;19.48;;
41925;SDS011;27615;51.826;5.692;2022-08-16T05:18:56;21.90;;;19.35;;
41925;SDS011;27615;51.826;5.692;2022-08-16T05:21:23;21.08;;;18.83;;
41925;SDS011;27615;51.826;5.692;2022-08-16T05:23:49;21.27;;;19.00;;
41925;SDS011;27615;51.826;5.692;2022-08-16T05:26:16;20.33;;;18.13;;
41925;SDS011;27615;51.826;5.692;2022-08-16T05:28:42;19.85;;;17.85;;
41925;SDS011;27615;51.826;5.692;2022-08-16T05:34:22;17.35;;;15.13;;
41925;SDS011;27615;51.826;5.692;2022-08-16T05:36:49;18.27;;;16.38;;
41925;SDS011;27615;51.826;5.692;2022-08-16T05:39:14;20.88;;;18.65;;
41925;SDS011;27615;51.826;5.692;2022-08-16T05:41:40;20.52;;;16.38;;
41925;SDS011;27615;51.826;5.692;2022-08-16T05:44:05;18.98;;;17.15;;
41925;SDS011;27615;51.826;5.692;2022-08-16T05:46:31;22.65;;;20.35;;
41925;SDS011;27615;51.826;5.692;2022-08-16T05:48:58;23.85;;;21.25;;
41925;SDS011;27615;51.826;5.692;2022-08-16T05:53:52;24.17;;;21.75;;
41925;SDS011;27615;51.826;5.692;2022-08-16T05:56:17;24.35;;;21.65;;
41925;SDS011;27615;51.826;5.692;2022-08-16T05:58:43;25.65;;;22.80;;
41925;SDS011;27615;51.826;5.692;2022-08-16T06:01:09;28.10;;;23.80;;
41925;SDS011;27615;51.826;5.692;2022-08-16T06:03:35;22.73;;;20.55;;
41925;SDS011;27615;51.826;5.692;2022-08-16T06:06:01;20.70;;;18.73;;
41925;SDS011;27615;51.826;5.692;2022-08-16T06:08:27;19.73;;;17.85;;
41925;SDS011;27615;51.826;5.692;2022-08-16T06:10:53;23.80;;;21.50;;
41925;SDS011;27615;51.826;5.692;2022-08-16T06:13:18;22.58;;;20.05;;
41925;SDS011;27615;51.826;5.692;2022-08-16T06:15:44;21.60;;;19.00;;
41925;SDS011;27615;51.826;5.692;2022-08-16T06:18:10;20.58;;;18.58;;
41925;SDS011;27615;51.826;5.692;2022-08-16T06:20:35;22.52;;;20.25;;
41925;SDS011;27615;51.826;5.692;2022-08-16T06:23:01;24.50;;;22.00;;
41925;SDS011;27615;51.826;5.692;2022-08-16T06:25:27;25.77;;;23.08;;
41925;SDS011;27615;51.826;5.692;2022-08-16T06:27:53;23.98;;;21.67;;
41925;SDS011;27615;51.826;5.692;2022-08-16T06:30:19;23.88;;;21.48;;
41925;SDS011;27615;51.826;5.692;2022-08-16T06:32:45;21.05;;;18.88;;
41925;SDS011;27615;51.826;5.692;2022-08-16T06:35:11;23.58;;;21.25;;
41925;SDS011;27615;51.826;5.692;2022-08-16T06:37:37;22.23;;;19.85;;
41925;SDS011;27615;51.826;5.692;2022-08-16T06:40:04;21.58;;;19.38;;
41925;SDS011;27615;51.826;5.692;2022-08-16T06:42:31;21.42;;;19.23;;
41925;SDS011;27615;51.826;5.692;2022-08-16T06:44:57;24.00;;;21.40;;
41925;SDS011;27615;51.826;5.692;2022-08-16T06:47:24;27.13;;;23.02;;
41925;SDS011;27615;51.826;5.692;2022-08-16T06:49:49;23.70;;;21.40;;
41925;SDS011;27615;51.826;5.692;2022-08-16T06:52:15;18.58;;;16.77;;
41925;SDS011;27615;51.826;5.692;2022-08-16T06:54:43;22.45;;;20.13;;
41925;SDS011;27615;51.826;5.692;2022-08-16T06:57:09;20.08;;;18.15;;
41925;SDS011;27615;51.826;5.692;2022-08-16T06:59:35;19.98;;;17.95;;
41925;SDS011;27615;51.826;5.692;2022-08-16T07:02:02;18.83;;;17.05;;
41925;SDS011;27615;51.826;5.692;2022-08-16T07:04:28;20.48;;;18.50;;
41925;SDS011;27615;51.826;5.692;2022-08-16T07:06:53;21.60;;;19.40;;
41925;SDS011;27615;51.826;5.692;2022-08-16T07:09:19;21.83;;;19.67;;
41925;SDS011;27615;51.826;5.692;2022-08-16T07:11:45;18.02;;;16.33;;
41925;SDS011;27615;51.826;5.692;2022-08-16T07:14:11;18.27;;;16.50;;
41925;SDS011;27615;51.826;5.692;2022-08-16T07:16:37;18.73;;;16.83;;
41925;SDS011;27615;51.826;5.692;2022-08-16T07:19:05;19.73;;;16.98;;
41925;SDS011;27615;51.826;5.692;2022-08-16T07:21:34;17.17;;;15.43;;
41925;SDS011;27615;51.826;5.692;2022-08-16T07:24:01;18.70;;;16.83;;
41925;SDS011;27615;51.826;5.692;2022-08-16T07:26:27;18.17;;;16.27;;
41925;SDS011;27615;51.826;5.692;2022-08-16T07:28:53;21.05;;;18.85;;
41925;SDS011;27615;51.826;5.692;2022-08-16T07:31:19;22.45;;;20.25;;
41925;SDS011;27615;51.826;5.692;2022-08-16T07:33:45;17.08;;;15.45;;
41925;SDS011;27615;51.826;5.692;2022-08-16T07:36:11;14.93;;;13.45;;
41925;SDS011;27615;51.826;5.692;2022-08-16T07:38:38;16.13;;;14.40;;
41925;SDS011;27615;51.826;5.692;2022-08-16T07:41:04;21.38;;;19.10;;
41925;SDS011;27615;51.826;5.692;2022-08-16T07:43:30;19.20;;;17.40;;
41925;SDS011;27615;51.826;5.692;2022-08-16T07:45:56;16.38;;;14.82;;
41925;SDS011;27615;51.826;5.692;2022-08-16T07:48:23;15.48;;;13.98;;
41925;SDS011;27615;51.826;5.692;2022-08-16T07:50:48;16.17;;;14.48;;
41925;SDS011;27615;51.826;5.692;2022-08-16T07:53:14;19.15;;;16.50;;
41925;SDS011;27615;51.826;5.692;2022-08-16T07:55:40;16.00;;;14.40;;
41925;SDS011;27615;51.826;5.692;2022-08-16T07:58:05;15.65;;;13.32;;
41925;SDS011;27615;51.826;5.692;2022-08-16T08:00:32;16.63;;;14.93;;
41925;SDS011;27615;51.826;5.692;2022-08-16T08:02:58;14.77;;;13.27;;
41925;SDS011;27615;51.826;5.692;2022-08-16T08:05:24;13.02;;;11.48;;
41925;SDS011;27615;51.826;5.692;2022-08-16T08:07:50;13.38;;;12.07;;
41925;SDS011;27615;51.826;5.692;2022-08-16T08:10:17;14.30;;;12.80;;
41925;SDS011;27615;51.826;5.692;2022-08-16T08:12:43;16.48;;;14.68;;
41925;SDS011;27615;51.826;5.692;2022-08-16T08:15:12;15.40;;;12.43;;
41925;SDS011;27615;51.826;5.692;2022-08-16T08:17:38;12.48;;;11.27;;
41925;SDS011;27615;51.826;5.692;2022-08-16T08:20:05;18.17;;;16.35;;
41925;SDS011;27615;51.826;5.692;2022-08-16T08:22:32;14.18;;;12.77;;
41925;SDS011;27615;51.826;5.692;2022-08-16T08:25:00;15.15;;;13.55;;
41925;SDS011;27615;51.826;5.692;2022-08-16T08:27:26;14.93;;;13.35;;
41925;SDS011;27615;51.826;5.692;2022-08-16T08:29:52;19.52;;;16.92;;
41925;SDS011;27615;51.826;5.692;2022-08-16T08:32:18;17.80;;;15.90;;
41925;SDS011;27615;51.826;5.692;2022-08-16T08:34:45;13.52;;;12.23;;
41925;SDS011;27615;51.826;5.692;2022-08-16T08:37:11;14.73;;;13.20;;
41925;SDS011;27615;51.826;5.692;2022-08-16T08:39:37;13.70;;;12.30;;
41925;SDS011;27615;51.826;5.692;2022-08-16T08:42:03;12.65;;;11.45;;
41925;SDS011;27615;51.826;5.692;2022-08-16T08:44:30;12.43;;;11.13;;
41925;SDS011;27615;51.826;5.692;2022-08-16T08:47:01;9.60;;;8.80;;
41925;SDS011;27615;51.826;5.692;2022-08-16T08:49:28;11.40;;;9.95;;
41925;SDS011;27615;51.826;5.692;2022-08-16T08:51:55;12.95;;;11.65;;
41925;SDS011;27615;51.826;5.692;2022-08-16T08:54:21;14.52;;;12.48;;
41925;SDS011;27615;51.826;5.692;2022-08-16T08:56:47;10.82;;;9.77;;
41925;SDS011;27615;51.826;5.692;2022-08-16T08:59:13;11.70;;;10.60;;
41925;SDS011;27615;51.826;5.692;2022-08-16T09:01:39;10.25;;;9.20;;
41925;SDS011;27615;51.826;5.692;2022-08-16T09:04:05;11.50;;;10.20;;
41925;SDS011;27615;51.826;5.692;2022-08-16T09:06:32;11.95;;;9.30;;
41925;SDS011;27615;51.826;5.692;2022-08-16T09:08:59;11.95;;;10.25;;
41925;SDS011;27615;51.826;5.692;2022-08-16T09:11:25;10.90;;;8.88;;
41925;SDS011;27615;51.826;5.692;2022-08-16T09:13:51;8.43;;;7.57;;
41925;SDS011;27615;51.826;5.692;2022-08-16T09:16:17;8.15;;;7.35;;
41925;SDS011;27615;51.826;5.692;2022-08-16T09:18:43;12.73;;;11.35;;
41925;SDS011;27615;51.826;5.692;2022-08-16T09:21:09;11.10;;;10.00;;
41925;SDS011;27615;51.826;5.692;2022-08-16T09:23:35;9.70;;;8.82;;
41925;SDS011;27615;51.826;5.692;2022-08-16T09:26:06;15.20;;;10.43;;
41925;SDS011;27615;51.826;5.692;2022-08-16T09:28:42;11.75;;;10.57;;
41925;SDS011;27615;51.826;5.692;2022-08-16T09:31:09;12.75;;;11.55;;
41925;SDS011;27615;51.826;5.692;2022-08-16T09:33:37;11.48;;;10.30;;
41925;SDS011;27615;51.826;5.692;2022-08-16T09:36:03;9.90;;;7.25;;
41925;SDS011;27615;51.826;5.692;2022-08-16T09:38:29;8.25;;;7.20;;
41925;SDS011;27615;51.826;5.692;2022-08-16T09:40:55;8.93;;;8.02;;
41925;SDS011;27615;51.826;5.692;2022-08-16T09:43:21;8.13;;;7.30;;
41925;SDS011;27615;51.826;5.692;2022-08-16T09:45:47;8.13;;;7.40;;
41925;SDS011;27615;51.826;5.692;2022-08-16T09:48:13;7.13;;;6.43;;
41925;SDS011;27615;51.826;5.692;2022-08-16T09:50:40;8.30;;;6.95;;
41925;SDS011;27615;51.826;5.692;2022-08-16T09:53:09;6.80;;;6.20;;
41925;SDS011;27615;51.826;5.692;2022-08-16T09:55:37;7.63;;;6.65;;
41925;SDS011;27615;51.826;5.692;2022-08-16T09:58:04;7.03;;;6.13;;
41925;SDS011;27615;51.826;5.692;2022-08-16T10:00:29;6.90;;;6.25;;
41925;SDS011;27615;51.826;5.692;2022-08-16T10:03:18;6.65;;;6.05;;
41925;SDS011;27615;51.826;5.692;2022-08-16T10:05:45;7.55;;;6.05;;
41925;SDS011;27615;51.826;5.692;2022-08-16T10:08:11;7.18;;;5.72;;
41925;SDS011;27615;51.826;5.692;2022-08-16T10:10:37;8.70;;;7.07;;
41925;SDS011;27615;51.826;5.692;2022-08-16T10:13:26;6.38;;;5.65;;
41925;SDS011;27615;51.826;5.692;2022-08-16T10:15:52;6.20;;;5.63;;
41925;SDS011;27615;51.826;5.692;2022-08-16T10:18:23;6.40;;;5.80;;
41925;SDS011;27615;51.826;5.692;2022-08-16T10:20:51;7.18;;;5.72;;
41925;SDS011;27615;51.826;5.692;2022-08-16T10:23:17;6.47;;;5.82;;
41925;SDS011;27615;51.826;5.692;2022-08-16T10:25:43;8.02;;;7.22;;
41925;SDS011;27615;51.826;5.692;2022-08-16T10:28:10;9.45;;;6.60;;
41925;SDS011;27615;51.826;5.692;2022-08-16T10:30:37;6.68;;;5.32;;
41925;SDS011;27615;51.826;5.692;2022-08-16T10:33:07;8.40;;;6.28;;
41925;SDS011;27615;51.826;5.692;2022-08-16T10:35:37;6.90;;;5.97;;
41925;SDS011;27615;51.826;5.692;2022-08-16T10:38:03;6.90;;;5.72;;
41925;SDS011;27615;51.826;5.692;2022-08-16T10:40:29;8.27;;;5.10;;
41925;SDS011;27615;51.826;5.692;2022-08-16T10:42:55;6.78;;;5.47;;
41925;SDS011;27615;51.826;5.692;2022-08-16T10:45:26;4.95;;;4.55;;
41925;SDS011;27615;51.826;5.692;2022-08-16T10:47:55;5.97;;;5.47;;
41925;SDS011;27615;51.826;5.692;2022-08-16T10:50:21;5.97;;;5.43;;
41925;SDS011;27615;51.826;5.692;2022-08-16T10:52:47;4.93;;;4.40;;
41925;SDS011;27615;51.826;5.692;2022-08-16T10:55:13;4.72;;;4.28;;
41925;SDS011;27615;51.826;5.692;2022-08-16T10:57:39;7.97;;;5.63;;
41925;SDS011;27615;51.826;5.692;2022-08-16T11:00:06;6.07;;;5.22;;
41925;SDS011;27615;51.826;5.692;2022-08-16T11:02:36;6.18;;;5.18;;
41925;SDS011;27615;51.826;5.692;2022-08-16T11:05:03;8.90;;;5.15;;
41925;SDS011;27615;51.826;5.692;2022-08-16T11:07:30;8.35;;;5.47;;
41925;SDS011;27615;51.826;5.692;2022-08-16T11:09:56;5.78;;;5.18;;
41925;SDS011;27615;51.826;5.692;2022-08-16T11:12:25;5.20;;;4.20;;
41925;SDS011;27615;51.826;5.692;2022-08-16T11:14:51;6.20;;;4.97;;
41925;SDS011;27615;51.826;5.692;2022-08-16T11:17:16;5.45;;;4.90;;
41925;SDS011;27615;51.826;5.692;2022-08-16T11:19:42;5.30;;;4.80;;
41925;SDS011;27615;51.826;5.692;2022-08-16T11:22:07;6.35;;;5.70;;
41925;SDS011;27615;51.826;5.692;2022-08-16T11:24:33;5.82;;;5.22;;
41925;SDS011;27615;51.826;5.692;2022-08-16T11:27:04;6.28;;;5.53;;
41925;SDS011;27615;51.826;5.692;2022-08-16T11:29:33;4.88;;;4.47;;
41925;SDS011;27615;51.826;5.692;2022-08-16T11:31:59;6.50;;;4.97;;
41925;SDS011;27615;51.826;5.692;2022-08-16T11:34:25;4.50;;;4.10;;
41925;SDS011;27615;51.826;5.692;2022-08-16T11:36:51;5.60;;;5.00;;
41925;SDS011;27615;51.826;5.692;2022-08-16T11:39:17;6.80;;;5.07;;
41925;SDS011;27615;51.826;5.692;2022-08-16T11:41:42;6.90;;;4.95;;
41925;SDS011;27615;51.826;5.692;2022-08-16T11:44:15;6.00;;;5.40;;
41925;SDS011;27615;51.826;5.692;2022-08-16T11:46:59;5.30;;;4.80;;
41925;SDS011;27615;51.826;5.692;2022-08-16T11:49:25;5.78;;;4.63;;
41925;SDS011;27615;51.826;5.692;2022-08-16T11:51:50;8.30;;;5.60;;
41925;SDS011;27615;51.826;5.692;2022-08-16T11:54:16;6.20;;;5.18;;
41925;SDS011;27615;51.826;5.692;2022-08-16T11:56:42;5.60;;;5.10;;
41925;SDS011;27615;51.826;5.692;2022-08-16T11:59:08;5.10;;;4.50;;
41925;SDS011;27615;51.826;5.692;2022-08-16T12:01:34;4.35;;;3.95;;
41925;SDS011;27615;51.826;5.692;2022-08-16T12:03:59;5.45;;;4.40;;
41925;SDS011;27615;51.826;5.692;2022-08-16T12:06:25;4.82;;;4.43;;
41925;SDS011;27615;51.826;5.692;2022-08-16T12:08:57;4.47;;;4.07;;
41925;SDS011;27615;51.826;5.692;2022-08-16T12:11:25;6.53;;;5.05;;
41925;SDS011;27615;51.826;5.692;2022-08-16T12:13:50;4.60;;;4.20;;
41925;SDS011;27615;51.826;5.692;2022-08-16T12:16:17;5.50;;;5.00;;
41925;SDS011;27615;51.826;5.692;2022-08-16T12:18:43;5.88;;;5.13;;
41925;SDS011;27615;51.826;5.692;2022-08-16T12:21:09;5.70;;;4.60;;
41925;SDS011;27615;51.826;5.692;2022-08-16T12:23:35;5.20;;;4.28;;
41925;SDS011;27615;51.826;5.692;2022-08-16T12:26:00;4.22;;;3.83;;
41925;SDS011;27615;51.826;5.692;2022-08-16T12:28:26;5.22;;;4.15;;
41925;SDS011;27615;51.826;5.692;2022-08-16T12:30:52;4.35;;;3.95;;
41925;SDS011;27615;51.826;5.692;2022-08-16T12:33:20;4.47;;;4.07;;
41925;SDS011;27615;51.826;5.692;2022-08-16T12:35:58;4.63;;;4.03;;
41925;SDS011;27615;51.826;5.692;2022-08-16T12:38:24;6.22;;;5.63;;
41925;SDS011;27615;51.826;5.692;2022-08-16T12:40:50;8.25;;;5.47;;
41925;SDS011;27615;51.826;5.692;2022-08-16T12:43:16;8.82;;;4.82;;
41925;SDS011;27615;51.826;5.692;2022-08-16T12:45:46;5.47;;;4.97;;
41925;SDS011;27615;51.826;5.692;2022-08-16T12:48:14;7.72;;;5.38;;
41925;SDS011;27615;51.826;5.692;2022-08-16T12:51:05;5.43;;;4.93;;
41925;SDS011;27615;51.826;5.692;2022-08-16T12:53:33;5.72;;;5.22;;
41925;SDS011;27615;51.826;5.692;2022-08-16T12:56:00;7.30;;;5.57;;
41925;SDS011;27615;51.826;5.692;2022-08-16T12:58:26;5.38;;;4.88;;
41925;SDS011;27615;51.826;5.692;2022-08-16T13:00:52;6.30;;;5.70;;
41925;SDS011;27615;51.826;5.692;2022-08-16T13:03:18;6.47;;;5.88;;
41925;SDS011;27615;51.826;5.692;2022-08-16T13:05:44;6.68;;;5.57;;
41925;SDS011;27615;51.826;5.692;2022-08-16T13:08:11;6.57;;;5.82;;
41925;SDS011;27615;51.826;5.692;2022-08-16T13:10:39;6.60;;;5.88;;
41925;SDS011;27615;51.826;5.692;2022-08-16T13:13:17;5.78;;;4.78;;
41925;SDS011;27615;51.826;5.692;2022-08-16T13:15:52;5.57;;;4.90;;
41925;SDS011;27615;51.826;5.692;2022-08-16T13:18:18;4.78;;;4.25;;
41925;SDS011;27615;51.826;5.692;2022-08-16T13:20:46;5.78;;;5.18;;
41925;SDS011;27615;51.826;5.692;2022-08-16T13:23:12;5.95;;;5.30;;
41925;SDS011;27615;51.826;5.692;2022-08-16T13:25:39;5.57;;;4.85;;
41925;SDS011;27615;51.826;5.692;2022-08-16T13:28:10;6.30;;;5.22;;
41925;SDS011;27615;51.826;5.692;2022-08-16T13:30:41;5.82;;;4.88;;
41925;SDS011;27615;51.826;5.692;2022-08-16T13:33:10;5.22;;;4.72;;
41925;SDS011;27615;51.826;5.692;2022-08-16T13:35:38;5.90;;;5.05;;
41925;SDS011;27615;51.826;5.692;2022-08-16T13:38:05;6.15;;;5.53;;
41925;SDS011;27615;51.826;5.692;2022-08-16T13:40:31;5.70;;;5.20;;
41925;SDS011;27615;51.826;5.692;2022-08-16T13:42:58;5.32;;;4.93;;
41925;SDS011;27615;51.826;5.692;2022-08-16T13:45:23;5.55;;;4.50;;
41925;SDS011;27615;51.826;5.692;2022-08-16T13:47:49;7.10;;;5.35;;
41925;SDS011;27615;51.826;5.692;2022-08-16T13:50:15;5.70;;;4.03;;
41925;SDS011;27615;51.826;5.692;2022-08-16T13:52:41;4.63;;;4.18;;
41925;SDS011;27615;51.826;5.692;2022-08-16T13:55:07;4.85;;;4.38;;
41925;SDS011;27615;51.826;5.692;2022-08-16T13:57:33;4.97;;;3.67;;
41925;SDS011;27615;51.826;5.692;2022-08-16T14:00:04;6.15;;;4.22;;
41925;SDS011;27615;51.826;5.692;2022-08-16T14:02:32;6.20;;;4.65;;
41925;SDS011;27615;51.826;5.692;2022-08-16T14:04:58;6.53;;;3.58;;
41925;SDS011;27615;51.826;5.692;2022-08-16T14:07:24;3.97;;;3.40;;
41925;SDS011;27615;51.826;5.692;2022-08-16T14:09:49;4.50;;;4.10;;
41925;SDS011;27615;51.826;5.692;2022-08-16T14:12:16;4.68;;;4.05;;
41925;SDS011;27615;51.826;5.692;2022-08-16T14:14:42;4.40;;;3.85;;
41925;SDS011;27615;51.826;5.692;2022-08-16T14:17:08;4.10;;;3.65;;
41925;SDS011;27615;51.826;5.692;2022-08-16T14:19:33;4.05;;;3.67;;
41925;SDS011;27615;51.826;5.692;2022-08-16T14:21:59;4.35;;;3.50;;
41925;SDS011;27615;51.826;5.692;2022-08-16T14:24:25;4.80;;;3.38;;
41925;SDS011;27615;51.826;5.692;2022-08-16T14:26:51;6.57;;;4.10;;
41925;SDS011;27615;51.826;5.692;2022-08-16T14:29:17;4.78;;;4.28;;
41925;SDS011;27615;51.826;5.692;2022-08-16T14:31:42;4.35;;;3.58;;
41925;SDS011;27615;51.826;5.692;2022-08-16T14:34:08;3.65;;;3.30;;
41925;SDS011;27615;51.826;5.692;2022-08-16T14:36:34;3.78;;;3.35;;
41925;SDS011;27615;51.826;5.692;2022-08-16T14:39:00;4.78;;;3.38;;
41925;SDS011;27615;51.826;5.692;2022-08-16T14:41:26;3.10;;;2.80;;
41925;SDS011;27615;51.826;5.692;2022-08-16T14:43:53;4.28;;;3.00;;